Atlantic City, Wyoming
Current Conditions -  °F | °C
As of 1:15 PM on Sunday 23 Nov 2014 (Local Time) from KFWZ Reporting Station
Overcast Overcast  
Wind Chill: 23°   Ceiling: 8000
Heat Index: 23°   Visibility: 10mi
Dew Point:   Wind: 0mph
Humidity: 54%   Direction: NA
Pressure: 29.8"   Gusts: NA
Location:  42.6143°N, 108.586°W
Report Text: KFWZ 232015Z AUTO 00000KT 10SM OVC080 M05/M13 A2980 RMK AO2
Loading
Personal Weather Stations






























Interactive Weather Map New forecast layout! Learn more

10-Day Weather Forecast

Advertisements
Track Severe Weather on mobile